Boston, Massachusetts
Current Conditions -  °F | °C
As of 4:54 AM on Wednesday 22 Oct 2014 (Local Time) from KBOS Reporting Station
Overcast Overcast  
Wind Chill: 52°   Ceiling: 700
Heat Index: 52°   Visibility: 9mi
Dew Point: 49°   Wind: 13mph
Humidity: 89%   Direction: 10°N
Pressure: 29.98"   Gusts: NA
Location:  42.36°N, 71.06°W
Report Text: KBOS 220854Z 01011KT 9SM OVC007 11/09 A2998 RMK AO2 SLP150 60000 T01110094 55002
Loading
Personal Weather Stations






























Interactive Weather Map New forecast layout! Learn more

10-Day Weather Forecast

Advertisements
Track Severe Weather on mobile